createdAt,value
2022-10-18T00:00:55.755Z,12.66
2022-10-18T00:03:24.441Z,12.57
2022-10-18T00:05:55.182Z,12.57
2022-10-18T00:08:24.763Z,12.33
2022-10-18T00:10:54.650Z,12.24
2022-10-18T00:13:23.652Z,12.42
2022-10-18T00:15:54.219Z,12.26
2022-10-18T00:18:26.489Z,12.24
2022-10-18T00:21:02.286Z,12.32
2022-10-18T00:23:32.082Z,12.30
2022-10-18T00:26:08.173Z,12.28
2022-10-18T00:28:39.248Z,12.06
2022-10-18T00:31:15.798Z,12.01
2022-10-18T00:33:47.581Z,11.91
2022-10-18T00:36:21.246Z,11.68
2022-10-18T00:38:50.208Z,11.70
2022-10-18T00:41:34.408Z,11.65
2022-10-18T00:44:25.561Z,11.65
2022-10-18T00:46:58.599Z,11.73
2022-10-18T00:49:36.256Z,11.91
2022-10-18T00:52:14.119Z,11.81
2022-10-18T00:54:43.274Z,11.68
2022-10-18T00:57:12.395Z,11.63
2022-10-18T00:59:43.128Z,11.61
2022-10-18T01:02:15.349Z,11.81
2022-10-18T01:04:47.288Z,11.92
2022-10-18T01:07:42.466Z,11.98
2022-10-18T01:10:29.856Z,11.78
2022-10-18T01:13:24.834Z,11.82
2022-10-18T01:16:15.844Z,11.85
2022-10-18T01:19:14.290Z,11.96
2022-10-18T01:21:44.096Z,11.95
2022-10-18T01:24:37.871Z,11.88
2022-10-18T01:27:13.503Z,11.98
2022-10-18T01:30:03.606Z,11.88
2022-10-18T01:32:46.562Z,11.64
2022-10-18T01:35:17.043Z,11.58
2022-10-18T01:37:49.418Z,11.74
2022-10-18T01:40:20.910Z,11.84
2022-10-18T01:42:53.497Z,11.96
2022-10-18T01:45:24.622Z,11.88
2022-10-18T01:47:56.200Z,11.70
2022-10-18T01:50:35.601Z,11.84
2022-10-18T01:53:23.915Z,11.82
2022-10-18T01:56:08.271Z,11.51
2022-10-18T01:58:41.451Z,11.38
2022-10-18T02:01:13.373Z,11.47
2022-10-18T02:03:45.313Z,11.70
2022-10-18T02:06:27.843Z,11.70
2022-10-18T02:09:00.209Z,11.73
2022-10-18T02:11:29.882Z,11.77
2022-10-18T02:14:03.557Z,11.85
2022-10-18T02:16:52.566Z,11.75
2022-10-18T02:19:29.973Z,11.77
2022-10-18T02:21:58.336Z,11.81
2022-10-18T02:24:51.271Z,11.82
2022-10-18T02:27:25.986Z,11.74
2022-10-18T02:30:04.146Z,11.63
2022-10-18T02:32:53.331Z,11.31
2022-10-18T02:35:31.319Z,11.15
2022-10-18T02:38:02.137Z,10.95
2022-10-18T02:40:36.692Z,10.82
2022-10-18T02:43:17.064Z,10.80
2022-10-18T02:45:49.471Z,10.62
2022-10-18T02:48:36.592Z,10.72
2022-10-18T02:51:06.699Z,10.85
2022-10-18T02:53:37.496Z,10.91
2022-10-18T02:56:12.805Z,10.83
2022-10-18T02:58:43.944Z,10.61
2022-10-18T03:01:15.292Z,10.75
2022-10-18T03:03:50.112Z,10.96
2022-10-18T03:06:20.288Z,11.02
2022-10-18T03:08:55.948Z,10.98
2022-10-18T03:11:24.307Z,10.76
2022-10-18T03:13:54.733Z,10.68
2022-10-18T03:16:28.646Z,10.67
2022-10-18T03:19:01.756Z,10.76
2022-10-18T03:21:31.299Z,10.57
2022-10-18T03:24:01.681Z,10.45
2022-10-18T03:26:33.156Z,10.52
2022-10-18T03:29:02.771Z,10.52
2022-10-18T03:31:34.615Z,10.45
2022-10-18T03:34:08.762Z,10.64
2022-10-18T03:36:41.571Z,10.88
2022-10-18T03:39:10.913Z,10.92
2022-10-18T03:41:40.096Z,10.92
2022-10-18T03:44:21.286Z,10.96
2022-10-18T03:46:50.171Z,10.86
2022-10-18T03:49:18.773Z,10.76
2022-10-18T03:51:49.349Z,10.72
2022-10-18T03:54:19.335Z,10.68
2022-10-18T03:56:49.778Z,10.79
2022-10-18T03:59:20.676Z,10.99
2022-10-18T04:01:53.471Z,10.78
2022-10-18T04:04:21.814Z,10.85
2022-10-18T04:06:50.264Z,10.86
2022-10-18T04:09:20.376Z,10.72
2022-10-18T04:11:51.724Z,10.64
2022-10-18T04:14:21.798Z,10.73
2022-10-18T04:16:55.536Z,10.89
2022-10-18T04:19:24.603Z,10.78
2022-10-18T04:21:53.014Z,10.67
2022-10-18T04:24:24.149Z,10.42
2022-10-18T04:26:53.256Z,10.44
2022-10-18T04:29:38.230Z,10.24
2022-10-18T04:32:09.425Z,10.48
2022-10-18T04:34:41.094Z,10.48
2022-10-18T04:37:11.052Z,10.21
2022-10-18T04:39:49.895Z,10.11
2022-10-18T04:42:26.577Z,10.25
2022-10-18T04:44:57.947Z,9.97
2022-10-18T04:47:28.227Z,9.99
2022-10-18T04:49:56.712Z,9.97
2022-10-18T04:52:26.196Z,10.03
2022-10-18T04:54:54.889Z,9.97
2022-10-18T04:57:25.365Z,10.00
2022-10-18T04:59:56.583Z,10.11
2022-10-18T05:02:26.465Z,10.25
2022-10-18T05:04:57.893Z,10.30
2022-10-18T05:07:27.019Z,10.30
2022-10-18T05:09:55.912Z,10.22
2022-10-18T05:12:27.517Z,10.21
2022-10-18T05:14:56.998Z,10.17
2022-10-18T05:17:28.780Z,10.14
2022-10-18T05:20:01.849Z,10.09
2022-10-18T05:22:30.281Z,10.28
2022-10-18T05:25:01.769Z,10.21
2022-10-18T05:27:43.597Z,10.17
2022-10-18T05:30:16.236Z,10.01
2022-10-18T05:32:46.754Z,10.18
2022-10-18T05:35:18.675Z,10.25
2022-10-18T05:37:51.465Z,10.25
2022-10-18T05:40:21.689Z,10.33
2022-10-18T05:43:01.109Z,10.22
2022-10-18T05:45:32.509Z,10.25
2022-10-18T05:48:14.778Z,10.44
2022-10-18T05:51:41.917Z,10.48
2022-10-18T05:54:13.769Z,10.59
2022-10-18T05:57:34.333Z,10.57
2022-10-18T06:00:14.503Z,10.72
2022-10-18T06:02:44.340Z,10.82
2022-10-18T06:05:25.787Z,10.91
2022-10-18T06:08:06.588Z,10.80
2022-10-18T06:10:45.985Z,10.83
2022-10-18T06:13:24.756Z,10.95
2022-10-18T06:16:27.294Z,10.96
2022-10-18T06:19:01.535Z,11.17
2022-10-18T06:21:44.081Z,11.12
2022-10-18T06:24:31.937Z,11.06
2022-10-18T06:27:09.460Z,11.19
2022-10-18T06:29:44.295Z,11.37
2022-10-18T06:32:19.717Z,11.38
2022-10-18T06:34:53.110Z,11.54
2022-10-18T06:37:22.712Z,11.56
2022-10-18T06:40:00.264Z,11.63
2022-10-18T06:43:05.751Z,11.78
2022-10-18T06:45:57.030Z,11.88
2022-10-18T06:48:38.818Z,11.94
2022-10-18T06:51:10.669Z,11.92
2022-10-18T06:53:59.022Z,12.04
2022-10-18T06:56:36.178Z,11.98
2022-10-18T06:59:15.680Z,12.15
2022-10-18T07:01:45.749Z,12.26
2022-10-18T07:04:16.851Z,12.59
2022-10-18T07:06:47.494Z,12.63
2022-10-18T07:09:20.540Z,12.83
2022-10-18T07:11:56.878Z,12.98
2022-10-18T07:14:29.428Z,13.05
2022-10-18T07:17:07.066Z,13.91
2022-10-18T07:19:37.448Z,15.77
2022-10-18T07:22:19.120Z,17.01
2022-10-18T07:25:01.140Z,17.63
2022-10-18T07:27:39.679Z,17.87
2022-10-18T07:30:32.235Z,17.91
2022-10-18T07:33:04.675Z,18.17
2022-10-18T07:35:36.688Z,17.96
2022-10-18T07:38:13.340Z,18.11
2022-10-18T07:40:47.055Z,18.18
2022-10-18T07:43:37.726Z,18.55
2022-10-18T07:50:17.770Z,19.54
2022-10-18T07:53:57.722Z,19.10
2022-10-18T07:57:09.149Z,18.40
2022-10-18T08:00:08.491Z,18.14
2022-10-18T08:02:47.395Z,17.22
2022-10-18T08:05:18.421Z,15.91
2022-10-18T08:08:07.874Z,15.24
2022-10-18T08:14:35.531Z,15.37
2022-10-18T08:17:48.041Z,15.26
2022-10-18T08:21:08.282Z,15.11
2022-10-18T08:23:52.449Z,15.37
2022-10-18T08:26:52.200Z,15.57
2022-10-18T08:29:31.503Z,15.48
2022-10-18T08:32:19.388Z,15.77
2022-10-18T08:34:57.828Z,16.15
2022-10-18T08:37:45.748Z,16.25
2022-10-18T08:40:28.697Z,16.30
2022-10-18T08:43:09.042Z,16.34
2022-10-18T08:45:46.910Z,16.33
2022-10-18T08:48:55.028Z,16.49
2022-10-18T08:51:41.575Z,16.74
2022-10-18T09:14:28.232Z,17.84
2022-10-18T09:16:55.670Z,17.83
2022-10-18T09:19:41.928Z,17.84
2022-10-18T09:22:14.116Z,18.05
2022-10-18T09:24:46.668Z,18.31
2022-10-18T09:27:20.550Z,18.53
2022-10-18T09:29:57.589Z,18.58
2022-10-18T09:32:56.019Z,18.59
2022-10-18T09:35:25.507Z,18.71
2022-10-18T09:38:03.312Z,18.82
2022-10-18T09:40:32.950Z,18.61
2022-10-18T09:43:02.648Z,18.48
2022-10-18T09:45:35.753Z,18.40
2022-10-18T09:48:13.527Z,18.49
2022-10-18T09:50:57.702Z,18.72
2022-10-18T09:53:28.168Z,18.93
2022-10-18T09:55:57.574Z,19.06
2022-10-18T09:58:24.824Z,19.13
2022-10-18T10:00:52.213Z,19.16
2022-10-18T10:03:20.097Z,19.38
2022-10-18T10:05:47.776Z,19.10
2022-10-18T10:08:15.226Z,19.28
2022-10-18T10:10:46.992Z,19.35
2022-10-18T10:13:23.019Z,19.51
2022-10-18T10:15:58.138Z,19.38
2022-10-18T10:18:30.731Z,19.28
2022-10-18T10:21:00.429Z,19.68
2022-10-18T10:23:39.763Z,19.83
2022-10-18T10:26:29.565Z,20.12
2022-10-18T10:28:57.277Z,20.20
2022-10-18T10:31:24.708Z,20.18
2022-10-18T10:34:21.162Z,20.06
2022-10-18T10:36:52.061Z,20.05
2022-10-18T10:39:51.214Z,20.06
2022-10-18T10:42:28.436Z,20.12
2022-10-18T10:44:55.756Z,20.22
2022-10-18T10:47:29.312Z,20.34
2022-10-18T10:49:57.929Z,20.29
2022-10-18T10:52:29.949Z,20.32
2022-10-18T10:55:23.024Z,20.53
2022-10-18T10:57:52.091Z,20.73
2022-10-18T11:00:39.607Z,20.73
2022-10-18T11:03:33.785Z,20.28
2022-10-18T11:06:02.102Z,20.58
2022-10-18T11:08:36.603Z,20.81
2022-10-18T11:11:41.329Z,20.77
2022-10-18T11:14:30.221Z,20.98
2022-10-18T11:17:03.072Z,21.01
2022-10-18T11:19:34.886Z,21.01
2022-10-18T11:22:02.213Z,20.92
2022-10-18T11:24:31.185Z,20.99
2022-10-18T11:27:13.616Z,21.18
2022-10-18T11:29:53.835Z,21.11
2022-10-18T11:32:36.277Z,21.35
2022-10-18T11:35:12.861Z,21.45
2022-10-18T11:38:08.441Z,21.63
2022-10-18T11:41:07.550Z,21.63
2022-10-18T11:44:01.669Z,21.65
2022-10-18T11:46:36.200Z,21.86
2022-10-18T11:49:09.601Z,21.75
2022-10-18T11:52:11.789Z,22.45
2022-10-18T11:55:13.230Z,22.08
2022-10-18T11:57:47.454Z,22.07
2022-10-18T12:00:44.822Z,21.76
2022-10-18T12:03:55.920Z,21.87
2022-10-18T12:06:25.418Z,21.89
2022-10-18T12:08:55.892Z,21.80
2022-10-18T12:11:27.285Z,21.98
2022-10-18T12:14:02.473Z,21.60
2022-10-18T12:16:50.425Z,21.82
2022-10-18T12:19:27.453Z,21.72
2022-10-18T12:22:02.472Z,21.96
2022-10-18T12:24:30.260Z,21.84
2022-10-18T12:26:59.386Z,21.89
2022-10-18T12:29:46.687Z,21.75
2022-10-18T12:32:22.505Z,21.90
2022-10-18T12:34:52.611Z,21.89
2022-10-18T12:37:42.667Z,21.98
2022-10-18T12:40:20.427Z,22.00
2022-10-18T12:42:49.724Z,22.08
2022-10-18T12:45:19.952Z,21.98
2022-10-18T12:47:47.280Z,22.68
2022-10-18T12:50:34.978Z,23.51
2022-10-18T12:53:16.897Z,23.55
2022-10-18T12:55:46.138Z,23.07
2022-10-18T12:58:22.400Z,22.66
2022-10-18T13:00:49.739Z,22.52
2022-10-18T13:03:17.413Z,22.41
2022-10-18T13:05:56.189Z,22.30
2022-10-18T13:08:34.183Z,22.31
2022-10-18T13:11:01.534Z,22.37
2022-10-18T13:13:39.654Z,22.30
2022-10-18T13:16:23.117Z,22.33
2022-10-18T13:19:01.437Z,22.21
2022-10-18T13:21:52.918Z,22.03
2022-10-18T13:24:26.073Z,22.14
2022-10-18T13:27:24.392Z,22.11
2022-10-18T13:30:05.946Z,22.34
2022-10-18T13:32:46.349Z,22.49
2022-10-18T13:35:38.331Z,22.49
2022-10-18T13:38:05.889Z,22.25
2022-10-18T13:40:33.124Z,22.24
2022-10-18T13:43:51.538Z,22.07
2022-10-18T13:46:45.862Z,22.08
2022-10-18T13:49:40.639Z,21.97
2022-10-18T13:52:19.154Z,21.90
2022-10-18T13:55:23.719Z,22.10
2022-10-18T13:58:03.207Z,22.14
2022-10-18T14:01:03.750Z,22.00
2022-10-18T14:03:57.374Z,21.82
2022-10-18T14:06:33.915Z,21.92
2022-10-18T14:09:14.259Z,22.07
2022-10-18T14:11:55.938Z,21.98
2022-10-18T14:15:05.511Z,21.86
2022-10-18T14:18:02.719Z,21.86
2022-10-18T14:20:34.592Z,21.84
2022-10-18T14:23:14.881Z,21.96
2022-10-18T14:25:42.217Z,21.87
2022-10-18T14:28:14.480Z,21.87
2022-10-18T14:30:57.915Z,21.83
2022-10-18T14:33:30.389Z,21.65
2022-10-18T14:36:22.143Z,21.77
2022-10-18T14:38:55.068Z,21.59
2022-10-18T14:41:22.664Z,21.52
2022-10-18T14:43:50.142Z,21.46
2022-10-18T14:46:29.189Z,21.60
2022-10-18T14:49:02.034Z,21.67
2022-10-18T14:51:35.494Z,21.46
2022-10-18T14:54:03.001Z,21.59
2022-10-18T14:56:31.217Z,21.62
2022-10-18T14:59:03.462Z,21.53
2022-10-18T15:01:33.816Z,21.39
2022-10-18T15:04:06.232Z,21.35
2022-10-18T15:06:33.664Z,21.35
2022-10-18T15:09:02.317Z,21.26
2022-10-18T15:11:29.664Z,21.16
2022-10-18T15:14:08.855Z,21.07
2022-10-18T15:16:38.459Z,21.18
2022-10-18T15:19:14.771Z,21.22
2022-10-18T15:22:08.046Z,21.12
2022-10-18T15:24:41.311Z,21.07
2022-10-18T15:27:15.454Z,20.94
2022-10-18T15:29:43.934Z,20.99
2022-10-18T15:32:25.246Z,20.83
2022-10-18T15:34:52.833Z,20.92
2022-10-18T15:37:40.832Z,20.83
2022-10-18T15:40:23.302Z,20.58
2022-10-18T15:42:51.672Z,20.50
2022-10-18T15:45:25.445Z,20.71
2022-10-18T15:48:10.772Z,20.66
2022-10-18T15:50:48.070Z,20.32
2022-10-18T15:53:21.511Z,20.23
2022-10-18T15:55:52.850Z,20.10
2022-10-18T15:58:26.975Z,19.98
2022-10-18T16:00:57.005Z,19.95
2022-10-18T16:03:24.510Z,19.83
2022-10-18T16:05:54.543Z,19.81
2022-10-18T16:08:28.314Z,19.78
2022-10-18T16:10:55.653Z,19.67
2022-10-18T16:13:22.934Z,19.61
2022-10-18T16:15:50.238Z,19.48
2022-10-18T16:18:19.029Z,19.33
2022-10-18T16:20:47.131Z,19.16
2022-10-18T16:23:19.516Z,18.77
2022-10-18T16:25:46.937Z,18.73
2022-10-18T16:28:15.666Z,18.69
2022-10-18T16:30:44.387Z,18.59
2022-10-18T16:33:11.769Z,18.53
2022-10-18T16:35:39.317Z,18.38
2022-10-18T16:38:06.597Z,18.49
2022-10-18T16:40:37.607Z,18.61
2022-10-18T16:43:07.696Z,18.47
2022-10-18T16:45:35.002Z,18.34
2022-10-18T16:48:02.396Z,18.20
2022-10-18T16:50:33.080Z,18.18
2022-10-18T16:53:01.854Z,18.17
2022-10-18T16:55:29.092Z,18.17
2022-10-18T16:57:56.436Z,18.23
2022-10-18T17:00:23.712Z,17.87
2022-10-18T17:02:51.129Z,17.86
2022-10-18T17:05:18.930Z,17.77
2022-10-18T17:07:46.552Z,17.59
2022-10-18T17:10:19.155Z,17.46
2022-10-18T17:12:46.632Z,17.63
2022-10-18T17:15:13.987Z,17.67
2022-10-18T17:17:41.436Z,17.70
2022-10-18T17:20:09.012Z,17.73
2022-10-18T17:22:36.393Z,17.80
2022-10-18T17:25:03.901Z,17.90
2022-10-18T17:27:31.609Z,17.89
2022-10-18T17:29:59.130Z,17.77
2022-10-18T17:32:26.541Z,17.65
2022-10-18T17:34:53.801Z,17.56
2022-10-18T17:37:21.133Z,17.42
2022-10-18T17:39:48.417Z,17.49
2022-10-18T17:42:15.735Z,17.56
2022-10-18T17:44:43.380Z,17.53
2022-10-18T17:47:10.681Z,17.46
2022-10-18T17:49:37.908Z,17.11
2022-10-18T17:52:07.005Z,17.11
2022-10-18T17:54:34.447Z,17.34
2022-10-18T17:57:01.715Z,17.22
2022-10-18T17:59:29.033Z,17.15
2022-10-18T18:01:56.472Z,17.08
2022-10-18T18:04:24.253Z,17.11
2022-10-18T18:06:52.936Z,17.08
2022-10-18T18:09:20.972Z,17.14
2022-10-18T18:11:48.975Z,17.03
2022-10-18T18:14:16.276Z,16.87
2022-10-18T18:16:45.024Z,16.87
2022-10-18T18:19:12.489Z,16.84
2022-10-18T18:21:40.137Z,16.50
2022-10-18T18:24:07.669Z,16.47
2022-10-18T18:26:35.147Z,16.42
2022-10-18T18:31:34.358Z,16.49
2022-10-18T18:34:06.044Z,16.34
2022-10-18T18:36:33.651Z,16.12
2022-10-18T18:39:01.347Z,15.98
2022-10-18T18:41:28.759Z,15.89
2022-10-18T18:44:01.068Z,15.91
2022-10-18T18:46:29.974Z,15.87
2022-10-18T18:48:57.421Z,16.08
2022-10-18T18:51:25.033Z,15.94
2022-10-18T18:53:52.430Z,15.82
2022-10-18T18:58:53.817Z,15.87
2022-10-18T19:01:40.405Z,15.91
2022-10-18T19:04:08.587Z,16.02
2022-10-18T19:06:40.790Z,16.23
2022-10-18T19:09:12.611Z,16.25
2022-10-18T19:11:40.111Z,16.26
2022-10-18T19:14:08.025Z,16.25
2022-10-18T19:16:39.365Z,16.27
2022-10-18T19:19:17.640Z,16.13
2022-10-18T19:21:46.775Z,15.84
2022-10-18T19:24:14.314Z,15.98
2022-10-18T19:26:49.629Z,16.05
2022-10-18T19:29:22.026Z,15.85
2022-10-18T19:31:53.296Z,15.88
2022-10-18T19:34:21.075Z,15.74
2022-10-18T19:36:48.785Z,15.60
2022-10-18T19:39:26.874Z,15.61
2022-10-18T19:41:56.174Z,15.72
2022-10-18T19:44:24.026Z,15.72
2022-10-18T19:46:51.502Z,15.85
2022-10-18T19:49:18.953Z,15.85
2022-10-18T19:51:46.385Z,15.82
2022-10-18T19:54:14.099Z,15.97
2022-10-18T19:56:41.898Z,15.95
2022-10-18T19:59:09.517Z,15.97
2022-10-18T20:01:36.972Z,15.84
2022-10-18T20:04:04.693Z,15.82
2022-10-18T20:06:32.160Z,15.78
2022-10-18T20:08:59.491Z,15.60
2022-10-18T20:11:28.051Z,15.62
2022-10-18T20:13:55.580Z,15.74
2022-10-18T20:16:28.110Z,15.71
2022-10-18T20:19:00.016Z,15.44
2022-10-18T20:21:28.508Z,15.17
2022-10-18T20:23:56.077Z,15.20
2022-10-18T20:26:25.386Z,15.31
2022-10-18T20:28:57.381Z,15.41
2022-10-18T20:31:26.814Z,15.43
2022-10-18T20:33:55.513Z,15.44
2022-10-18T20:36:22.946Z,15.48
2022-10-18T20:38:50.318Z,15.62
2022-10-18T20:41:28.199Z,15.57
2022-10-18T20:43:59.905Z,15.50
2022-10-18T20:46:28.319Z,15.23
2022-10-18T20:48:55.663Z,15.23
2022-10-18T20:51:23.162Z,15.27
2022-10-18T20:53:50.732Z,15.33
2022-10-18T20:56:20.508Z,15.37
2022-10-18T20:58:49.567Z,15.17
2022-10-18T21:01:17.943Z,15.14
2022-10-18T21:03:45.979Z,14.98
2022-10-18T21:06:15.024Z,15.11
2022-10-18T21:08:42.835Z,15.13
2022-10-18T21:11:10.266Z,15.13
2022-10-18T21:13:38.033Z,15.22
2022-10-18T21:16:05.722Z,15.00
2022-10-18T21:18:33.851Z,14.99
2022-10-18T21:21:16.698Z,14.88
2022-10-18T21:23:44.319Z,14.71
2022-10-18T21:26:19.671Z,14.82
2022-10-18T21:28:49.261Z,14.95
2022-10-18T21:31:43.479Z,14.76
2022-10-18T21:34:15.348Z,14.83
2022-10-18T21:36:43.776Z,14.86
2022-10-18T21:39:13.820Z,14.88
2022-10-18T21:41:41.873Z,14.76
2022-10-18T21:44:10.803Z,14.73
2022-10-18T21:46:39.535Z,14.75
2022-10-18T21:49:07.196Z,14.78
2022-10-18T21:51:34.525Z,14.73
2022-10-18T21:54:01.856Z,14.73
2022-10-18T21:56:31.076Z,14.65
2022-10-18T21:58:58.403Z,14.72
2022-10-18T22:01:33.831Z,14.78
2022-10-18T22:04:02.129Z,14.83
2022-10-18T22:06:32.279Z,14.65
2022-10-18T22:09:01.859Z,14.49
2022-10-18T22:11:38.734Z,14.45
2022-10-18T22:14:05.993Z,14.61
2022-10-18T22:16:33.174Z,14.69
2022-10-18T22:19:01.441Z,14.61
2022-10-18T22:21:28.909Z,14.69
2022-10-18T22:23:59.499Z,14.59
2022-10-18T22:26:32.838Z,14.71
2022-10-18T22:29:01.836Z,14.79
2022-10-18T22:31:30.784Z,14.89
2022-10-18T22:34:03.388Z,14.90
2022-10-18T22:36:32.614Z,14.89
2022-10-18T22:38:59.864Z,14.86
2022-10-18T22:41:27.184Z,14.75
2022-10-18T22:43:55.629Z,14.73
2022-10-18T22:46:26.064Z,14.83
2022-10-18T22:48:53.446Z,14.71
2022-10-18T22:51:20.998Z,14.73
2022-10-18T22:53:48.244Z,14.86
2022-10-18T22:56:17.572Z,14.96
2022-10-18T22:58:44.824Z,14.89
2022-10-18T23:01:13.601Z,14.92
2022-10-18T23:03:40.800Z,15.06
2022-10-18T23:06:24.897Z,15.02
2022-10-18T23:08:53.159Z,14.89
2022-10-18T23:11:20.609Z,14.98
2022-10-18T23:13:47.950Z,14.93
2022-10-18T23:16:15.211Z,14.89
2022-10-18T23:18:42.559Z,14.85
2022-10-18T23:21:11.377Z,14.86
2022-10-18T23:23:39.517Z,14.80
2022-10-18T23:26:08.404Z,14.78
2022-10-18T23:28:36.450Z,14.69
2022-10-18T23:31:08.780Z,14.55
2022-10-18T23:33:36.220Z,14.58
2022-10-18T23:36:04.125Z,14.58
2022-10-18T23:38:31.709Z,14.57
2022-10-18T23:40:59.121Z,14.52
2022-10-18T23:43:26.480Z,14.61
2022-10-18T23:45:53.697Z,14.75
2022-10-18T23:48:21.027Z,14.85
2022-10-18T23:50:48.313Z,14.85
2022-10-18T23:53:15.681Z,14.85
2022-10-18T23:55:53.841Z,14.79
2022-10-18T23:58:21.374Z,14.93
